Time;durP1;ratioP1;P1;durP2;ratioP2;P2;SDS_P1;SDS_P2;PMS_P1;PMS_P2;Temp;Humidity;BMP_temperature;BMP_pressure;BME280_temperature;BME280_humidity;BME280_pressure;Samples;Min_cycle;Max_cycle;Signal;HPM_P1;HPM_P2
2021/03/15 00:00:28;;;;;;;46.58;24.00;;;;;;;8.97;59.57;92724.34;5093186;28;20102;-69
2021/03/15 00:02:54;;;;;;;41.97;24.67;;;;;;;8.94;59.56;92721.59;5091613;28;20016;-68
2021/03/15 00:05:20;;;;;;;54.63;27.15;;;;;;;8.98;59.17;92709.97;5091673;28;20024;-69
2021/03/15 00:07:46;;;;;;;55.65;27.48;;;;;;;9.03;59.12;92706.31;5091472;28;20024;-68
2021/03/15 00:10:13;;;;;;;49.75;27.05;;;;;;;9.08;59.06;92698.13;5091502;28;20407;-68
2021/03/15 00:12:40;;;;;;;49.38;26.27;;;;;;;8.87;59.38;92698.19;5091408;28;20027;-69
2021/03/15 00:15:07;;;;;;;51.22;27.23;;;;;;;8.87;59.16;92690.22;5091448;28;20023;-68
2021/03/15 00:17:32;;;;;;;48.67;24.73;;;;;;;8.72;59.60;92706.81;5092366;28;20368;-68
2021/03/15 00:19:58;;;;;;;51.30;26.88;;;;;;;8.79;59.66;92704.38;5091080;28;20134;-69
2021/03/15 00:22:23;;;;;;;41.70;22.65;;;;;;;8.67;59.55;92701.69;5092561;28;20080;-68
2021/03/15 00:24:49;;;;;;;42.15;24.10;;;;;;;8.68;59.33;92705.91;5092600;28;20016;-68
2021/03/15 00:27:14;;;;;;;51.15;25.25;;;;;;;8.67;60.11;92699.84;5091009;28;20491;-66
2021/03/15 00:29:39;;;;;;;52.53;27.27;;;;;;;8.75;59.96;92688.34;5092565;28;20035;-67
2021/03/15 00:32:05;;;;;;;57.78;29.92;;;;;;;8.78;59.82;92678.94;5090933;28;20103;-67
2021/03/15 00:34:33;;;;;;;51.67;27.88;;;;;;;8.82;59.79;92674.50;5092240;28;20031;-67
2021/03/15 00:36:59;;;;;;;52.78;27.50;;;;;;;8.81;59.61;92675.59;5092143;28;20016;-68
2021/03/15 00:39:25;;;;;;;46.55;24.58;;;;;;;8.57;60.13;92684.31;5091047;28;20424;-67
2021/03/15 00:41:50;;;;;;;35.58;19.65;;;;;;;8.44;59.57;92665.69;5092662;28;20108;-68
2021/03/15 00:44:16;;;;;;;42.17;20.30;;;;;;;8.52;59.21;92664.03;5091773;28;20032;-68
2021/03/15 00:46:41;;;;;;;38.85;21.45;;;;;;;8.50;60.17;92655.63;5090927;28;20034;-68
2021/03/15 00:49:07;;;;;;;43.05;24.05;;;;;;;8.59;60.48;92669.59;5090068;28;20032;-68
2021/03/15 00:51:32;;;;;;;52.38;21.95;;;;;;;8.68;59.62;92650.13;5091894;28;20031;-68
2021/03/15 00:53:57;;;;;;;38.28;21.35;;;;;;;8.71;59.49;92655.56;5090244;28;20049;-68
2021/03/15 00:56:23;;;;;;;34.70;18.63;;;;;;;8.71;59.39;92654.78;5090050;28;20068;-68
2021/03/15 00:58:48;;;;;;;40.13;20.25;;;;;;;8.84;59.93;92664.31;5091472;28;20069;-69
2021/03/15 01:01:19;;;;;;;38.40;20.33;;;;;;;8.80;59.96;92650.91;5089806;28;20411;-68
2021/03/15 01:03:45;;;;;;;42.55;19.92;;;;;;;8.88;59.62;92649.28;5091469;28;20031;-68
2021/03/15 01:06:13;;;;;;;43.47;21.40;;;;;;;8.96;59.66;92634.34;5091673;28;20089;-68
2021/03/15 01:08:39;;;;;;;42.08;23.40;;;;;;;9.05;59.62;92624.34;5090068;28;20043;-68
2021/03/15 01:11:04;;;;;;;42.38;22.48;;;;;;;8.92;59.41;92622.81;5090329;28;20031;-68
2021/03/15 01:13:29;;;;;;;35.97;21.35;;;;;;;8.98;59.25;92616.94;5091252;28;20162;-68
2021/03/15 01:15:55;;;;;;;40.92;20.73;;;;;;;9.00;59.29;92614.72;5090180;28;20016;-68
2021/03/15 01:18:20;;;;;;;46.30;22.83;;;;;;;9.06;59.79;92609.97;5089948;28;20039;-68
2021/03/15 01:20:46;;;;;;;43.22;23.88;;;;;;;9.09;60.01;92614.59;5084897;28;20031;-68
2021/03/15 01:23:11;;;;;;;52.67;25.00;;;;;;;8.97;60.23;92598.66;5090553;28;20032;-68
2021/03/15 01:25:40;;;;;;;46.22;25.42;;;;;;;9.01;60.26;92608.28;5091758;28;20031;-69
2021/03/15 01:28:07;;;;;;;40.90;22.55;;;;;;;9.04;60.21;92594.34;5091696;28;20082;-68
2021/03/15 01:30:35;;;;;;;44.92;22.25;;;;;;;9.12;60.30;92602.53;5090145;28;20105;-68
2021/03/15 01:33:01;;;;;;;48.13;22.38;;;;;;;9.14;60.25;92587.81;5090219;28;20095;-68
2021/03/15 01:35:27;;;;;;;46.42;21.75;;;;;;;9.17;59.83;92591.69;5091319;28;20047;-69
2021/03/15 01:37:53;;;;;;;40.33;21.10;;;;;;;9.21;59.50;92579.25;5091529;28;20471;-68
2021/03/15 01:40:19;;;;;;;38.05;20.25;;;;;;;9.18;59.22;92574.59;5091429;28;20028;-68
2021/03/15 01:42:45;;;;;;;41.60;20.80;;;;;;;9.14;59.35;92560.44;5089828;28;20126;-69
2021/03/15 01:45:11;;;;;;;37.40;19.88;;;;;;;8.91;60.73;92576.84;5091253;28;20480;-69
2021/03/15 01:47:43;;;;;;;32.70;18.13;;;;;;;8.90;60.96;92575.31;5089846;28;20076;-68
2021/03/15 01:50:10;;;;;;;35.58;19.40;;;;;;;8.83;61.10;92561.78;5089798;28;20020;-69
2021/03/15 01:52:38;;;;;;;33.15;19.15;;;;;;;8.80;61.51;92551.84;5091185;28;20040;-68
2021/03/15 01:55:05;;;;;;;37.45;19.85;;;;;;;8.85;61.43;92543.63;5089725;28;20410;-68
2021/03/15 01:57:31;;;;;;;33.15;19.02;;;;;;;8.94;61.02;92556.81;5091208;28;20466;-68
2021/03/15 01:59:57;;;;;;;32.60;19.15;;;;;;;8.92;61.50;92551.84;5089810;28;20019;-67
2021/03/15 02:02:22;;;;;;;29.27;19.08;;;;;;;8.84;61.79;92526.16;5090938;28;20028;-67
2021/03/15 02:04:48;;;;;;;34.97;18.98;;;;;;;8.92;61.80;92530.59;5089632;28;20024;-68
2021/03/15 02:07:13;;;;;;;34.17;16.58;;;;;;;8.99;61.85;92533.44;5089450;28;20027;-68
2021/03/15 02:09:39;;;;;;;34.33;19.10;;;;;;;8.89;61.73;92539.22;5091051;28;20355;-68
2021/03/15 02:12:16;;;;;;;36.65;18.27;;;;;;;8.86;61.87;92537.22;5090614;28;20498;-68
2021/03/15 02:14:58;;;;;;;35.17;19.23;;;;;;;8.79;62.10;92529.03;5090666;28;20384;-67
2021/03/15 02:17:51;;;;;;;34.03;19.63;;;;;;;8.84;62.38;92523.50;5083994;28;20102;-68
2021/03/15 02:20:25;;;;;;;28.40;18.30;;;;;;;8.86;62.81;92529.25;5089435;28;20427;-67
2021/03/15 02:22:57;;;;;;;31.55;18.50;;;;;;;8.95;62.52;92527.25;5090440;28;20035;-67
2021/03/15 02:26:00;;;;;;;31.67;18.65;;;;;;;9.06;62.41;92524.13;5090361;28;20027;-68
2021/03/15 02:28:44;;;;;;;33.78;18.83;;;;;;;9.08;61.97;92516.59;5089058;28;20020;-68
2021/03/15 02:31:17;;;;;;;38.58;20.38;;;;;;;9.10;62.03;92514.38;5089101;28;20036;-68
2021/03/15 02:34:00;;;;;;;32.55;19.00;;;;;;;9.09;61.82;92504.84;5090689;28;20050;-68
2021/03/15 02:36:31;;;;;;;39.05;18.80;;;;;;;9.10;61.69;92511.72;5090352;28;20025;-68
2021/03/15 02:38:58;;;;;;;31.42;18.63;;;;;;;9.15;61.70;92503.50;5089014;28;20073;-68
2021/03/15 02:41:23;;;;;;;33.13;17.35;;;;;;;9.15;61.94;92498.97;5088906;28;20096;-68
2021/03/15 02:43:53;;;;;;;28.85;17.20;;;;;;;9.16;61.40;92499.72;5088866;28;20414;-68
2021/03/15 02:46:22;;;;;;;36.13;17.48;;;;;;;9.01;61.78;92499.31;5090262;28;20023;-68
2021/03/15 02:48:55;;;;;;;31.25;17.48;;;;;;;8.85;63.03;92501.13;5090548;28;20047;-69
2021/03/15 02:51:25;;;;;;;33.45;17.75;;;;;;;8.73;63.31;92485.22;5088427;28;20024;-68
2021/03/15 02:53:51;;;;;;;27.63;15.93;;;;;;;8.61;63.97;92486.03;5090124;28;20044;-68
2021/03/15 02:56:20;;;;;;;35.55;17.65;;;;;;;8.59;63.80;92478.38;5090118;28;20028;-69
2021/03/15 02:58:48;;;;;;;32.45;18.00;;;;;;;8.64;64.23;92472.81;5090510;28;20016;-69
2021/03/15 03:01:18;;;;;;;29.30;16.75;;;;;;;8.68;63.67;92464.97;5088767;28;20036;-69
2021/03/15 03:03:46;;;;;;;32.65;16.30;;;;;;;8.73;63.60;92477.25;5090443;28;20032;-69
2021/03/15 03:06:15;;;;;;;31.60;16.55;;;;;;;8.72;63.60;92476.47;5088486;28;20471;-69
2021/03/15 03:08:43;;;;;;;39.45;18.13;;;;;;;8.78;63.78;92474.38;5083299;28;20028;-68
2021/03/15 03:11:10;;;;;;;38.78;20.50;;;;;;;8.80;63.65;92482.78;5090647;28;20122;-68
2021/03/15 03:13:36;;;;;;;36.28;20.60;;;;;;;8.78;63.70;92490.31;5093895;28;20024;-68
2021/03/15 03:16:02;;;;;;;39.95;21.00;;;;;;;8.82;63.44;92470.69;5092358;28;20036;-68
2021/03/15 03:18:31;;;;;;;43.75;22.77;;;;;;;8.84;63.14;92467.72;5093672;28;20051;-69
2021/03/15 03:20:59;;;;;;;38.65;22.00;;;;;;;8.86;63.18;92476.13;5093720;28;20485;-69
2021/03/15 03:23:30;;;;;;;40.60;20.30;;;;;;;8.86;63.00;92470.81;5092143;28;20028;-68
2021/03/15 03:25:56;;;;;;;40.67;20.55;;;;;;;8.88;62.81;92471.25;5092242;28;20032;-68
2021/03/15 03:28:24;;;;;;;34.85;20.20;;;;;;;8.74;63.20;92476.91;5093295;28;20031;-69
2021/03/15 03:30:50;;;;;;;39.92;20.65;;;;;;;8.68;63.33;92469.50;5093456;28;20031;-68
2021/03/15 03:33:17;;;;;;;49.28;22.73;;;;;;;8.61;63.51;92462.13;5093504;28;20032;-68
2021/03/15 03:35:43;;;;;;;44.88;21.70;;;;;;;8.60;63.63;92453.34;5093129;28;20406;-68
2021/03/15 03:38:10;;;;;;;48.28;23.30;;;;;;;8.68;63.82;92466.84;5093360;28;20024;-68
2021/03/15 03:40:35;;;;;;;45.47;23.08;;;;;;;8.64;63.50;92456.13;5092027;28;20467;-68
2021/03/15 03:43:01;;;;;;;41.38;22.00;;;;;;;8.61;63.91;92443.53;5093235;28;20032;-68
2021/03/15 03:45:26;;;;;;;43.97;19.58;;;;;;;8.49;64.28;92451.47;5091642;28;20024;-69
2021/03/15 03:47:51;;;;;;;39.75;21.45;;;;;;;8.32;65.33;92436.53;5093338;28;20023;-68
2021/03/15 03:50:21;;;;;;;36.05;19.63;;;;;;;8.21;65.75;92446.84;5092112;28;20031;-68
2021/03/15 03:52:56;;;;;;;41.97;21.40;;;;;;;8.07;66.33;92425.16;5086325;28;20078;-68
2021/03/15 03:55:26;;;;;;;38.22;21.15;;;;;;;8.13;66.38;92429.91;5093121;28;20028;-67
2021/03/15 03:57:52;;;;;;;39.50;21.13;;;;;;;8.23;66.58;92434.00;5092773;28;20031;-67
2021/03/15 04:00:18;;;;;;;35.47;20.85;;;;;;;8.20;66.17;92424.03;5092910;28;20508;-69
2021/03/15 04:02:59;;;;;;;33.30;20.35;;;;;;;8.28;65.94;92414.44;5092802;28;20016;-69
2021/03/15 04:05:27;;;;;;;38.10;20.02;;;;;;;8.15;66.01;92395.84;5091751;28;20031;-68
2021/03/15 04:08:01;;;;;;;36.85;20.73;;;;;;;8.16;66.04;92408.03;5092897;28;20032;-68
2021/03/15 04:10:29;;;;;;;37.83;20.58;;;;;;;8.14;66.21;92398.84;5092981;28;20031;-68
2021/03/15 04:12:58;;;;;;;37.42;21.35;;;;;;;8.25;65.89;92397.28;5092702;28;20114;-68
2021/03/15 04:15:26;;;;;;;36.72;20.17;;;;;;;8.32;66.11;92378.13;5092740;28;20447;-68
2021/03/15 04:17:53;;;;;;;40.08;21.75;;;;;;;8.30;65.89;92396.28;5091263;28;20107;-68
2021/03/15 04:20:30;;;;;;;45.55;22.77;;;;;;;8.27;66.13;92397.72;5092714;28;20047;-68
2021/03/15 04:22:58;;;;;;;38.50;22.75;;;;;;;8.23;66.76;92402.94;5090923;28;20036;-67
2021/03/15 04:25:28;;;;;;;47.13;24.08;;;;;;;8.22;66.59;92406.69;5092938;28;20035;-67
2021/03/15 04:27:55;;;;;;;39.67;21.85;;;;;;;8.15;67.05;92405.69;5092514;28;20448;-68
2021/03/15 04:30:21;;;;;;;39.55;23.02;;;;;;;8.15;67.02;92401.16;5091448;28;20043;-68
2021/03/15 04:32:52;;;;;;;42.80;23.67;;;;;;;8.16;66.87;92408.03;5091070;28;20057;-68
2021/03/15 04:35:21;;;;;;;40.10;22.38;;;;;;;8.20;66.91;92394.84;5091088;28;20027;-68
2021/03/15 04:37:49;;;;;;;41.65;22.95;;;;;;;8.18;66.49;92387.25;5092447;28;20023;-67
2021/03/15 04:40:16;;;;;;;42.38;23.92;;;;;;;8.13;67.39;92386.69;5091159;28;20024;-67
2021/03/15 04:42:42;;;;;;;42.00;23.98;;;;;;;8.07;67.06;92388.78;5092388;28;20547;-67
2021/03/15 04:45:08;;;;;;;39.45;23.70;;;;;;;7.98;67.41;92366.91;5092335;28;20041;-67
2021/03/15 04:47:34;;;;;;;43.80;23.70;;;;;;;7.98;67.94;92380.94;5092063;28;20495;-67
2021/03/15 04:49:59;;;;;;;43.60;23.88;;;;;;;7.92;67.92;92379.63;5090585;28;20032;-68
2021/03/15 04:52:27;;;;;;;44.90;22.38;;;;;;;7.91;68.10;92375.41;5091992;28;20027;-68
2021/03/15 04:54:52;;;;;;;40.53;23.20;;;;;;;7.92;68.04;92369.00;5090649;28;20081;-68
2021/03/15 04:57:18;;;;;;;39.65;22.42;;;;;;;7.98;68.04;92382.84;5091847;28;20474;-68
2021/03/15 04:59:46;;;;;;;42.97;23.45;;;;;;;7.90;68.16;92373.88;5091705;28;20028;-68
2021/03/15 05:02:16;;;;;;;39.05;22.60;;;;;;;7.92;68.17;92370.91;5091639;28;20098;-68
2021/03/15 05:04:42;;;;;;;38.80;21.33;;;;;;;7.89;67.33;92371.53;5091777;28;20035;-68
2021/03/15 05:07:09;;;;;;;35.17;19.10;;;;;;;7.90;67.33;92370.47;5088947;28;20020;-68
2021/03/15 05:09:36;;;;;;;32.42;18.58;;;;;;;7.99;67.33;92363.13;5090370;28;20485;-68
2021/03/15 05:12:02;;;;;;;32.28;18.35;;;;;;;8.06;66.73;92362.56;5091576;28;20028;-67
2021/03/15 05:14:28;;;;;;;39.10;18.48;;;;;;;8.14;66.41;92362.47;5090156;28;20031;-66
2021/03/15 05:16:53;;;;;;;33.60;18.63;;;;;;;8.15;66.18;92356.03;5089939;28;20110;-67
2021/03/15 05:19:20;;;;;;;33.53;17.75;;;;;;;8.25;65.60;92357.47;5091177;28;20080;-67
2021/03/15 05:21:47;;;;;;;32.30;18.67;;;;;;;8.27;65.42;92359.81;5091238;28;20095;-66
2021/03/15 05:24:15;;;;;;;33.60;19.10;;;;;;;8.40;65.29;92348.03;5089822;28;20028;-67
2021/03/15 05:26:43;;;;;;;28.25;17.58;;;;;;;8.48;64.88;92347.16;5091006;28;20132;-66
2021/03/15 05:29:12;;;;;;;30.00;17.25;;;;;;;8.59;64.53;92339.50;5089670;28;20028;-67
2021/03/15 05:31:40;;;;;;;26.27;17.33;;;;;;;8.61;64.52;92354.00;5091536;28;20474;-67
2021/03/15 05:34:07;;;;;;;26.38;16.33;;;;;;;8.67;64.17;92361.72;5090926;28;20035;-67
2021/03/15 05:36:34;;;;;;;28.35;16.55;;;;;;;8.67;64.26;92351.88;5090209;28;20062;-68
2021/03/15 05:38:59;;;;;;;25.75;16.17;;;;;;;8.67;64.19;92356.41;5090961;28;20028;-68
2021/03/15 05:41:57;;;;;;;31.33;17.20;;;;;;;8.70;64.19;92342.47;5089547;28;20498;-68
2021/03/15 05:45:00;;;;;;;28.73;16.85;;;;;;;8.77;63.97;92345.28;5056729;28;20082;-68
2021/03/15 05:47:43;;;;;;;28.08;16.27;;;;;;;8.79;64.08;92351.03;5089858;28;20031;-67
2021/03/15 05:50:30;;;;;;;30.33;17.02;;;;;;;8.86;63.99;92339.84;5090550;28;20415;-68
2021/03/15 05:53:20;;;;;;;27.05;16.63;;;;;;;8.90;63.79;92341.50;5089138;28;20076;-68
2021/03/15 05:55:58;;;;;;;30.95;16.65;;;;;;;8.95;63.67;92349.19;5085566;28;20035;-68
2021/03/15 05:59:03;;;;;;;26.90;16.58;;;;;;;9.02;63.61;92352.06;5089263;28;20027;-68
2021/03/15 06:02:10;;;;;;;30.80;17.20;;;;;;;9.07;63.61;92343.06;5089717;28;20496;-67
2021/03/15 06:04:45;;;;;;;30.63;17.90;;;;;;;9.12;63.92;92347.34;5088709;28;20040;-68
2021/03/15 06:07:20;;;;;;;28.80;17.05;;;;;;;9.14;63.15;92347.78;5090434;28;20028;-69
2021/03/15 06:09:55;;;;;;;25.35;16.95;;;;;;;9.19;62.96;92342.22;5084964;28;20446;-69
2021/03/15 06:12:28;;;;;;;28.23;17.98;;;;;;;9.27;62.80;92343.19;5088746;28;20048;-68
2021/03/15 06:14:54;;;;;;;36.97;19.50;;;;;;;9.35;62.50;92351.00;5090268;28;20020;-69
2021/03/15 06:17:21;;;;;;;27.58;16.70;;;;;;;9.44;61.92;92362.25;5090396;28;20027;-69
2021/03/15 06:19:48;;;;;;;35.78;17.95;;;;;;;9.47;61.12;92350.16;5089331;28;20028;-68
2021/03/15 06:22:15;;;;;;;38.85;18.35;;;;;;;9.48;61.35;92353.59;5090545;28;20035;-68
2021/03/15 06:24:42;;;;;;;33.33;17.73;;;;;;;9.49;61.43;92355.91;5090401;28;20486;-68
2021/03/15 06:27:09;;;;;;;32.78;18.00;;;;;;;9.51;61.48;92353.69;5089184;28;20463;-68
2021/03/15 06:29:35;;;;;;;31.17;16.80;;;;;;;9.59;61.94;92346.66;5089136;28;20380;-68
2021/03/15 06:32:01;;;;;;;33.30;17.17;;;;;;;9.67;61.26;92348.38;5090517;28;20036;-68
2021/03/15 06:34:29;;;;;;;33.60;17.88;;;;;;;9.71;60.80;92359.06;5090226;28;20039;-69
2021/03/15 06:36:56;;;;;;;41.88;19.52;;;;;;;9.72;60.87;92350.75;5090451;28;20032;-68
2021/03/15 06:39:22;;;;;;;39.33;19.73;;;;;;;9.50;62.00;92348.69;5088606;28;20036;-68
2021/03/15 06:41:54;;;;;;;34.80;19.20;;;;;;;9.58;62.15;92348.50;5090487;28;20097;-68
2021/03/15 06:44:19;;;;;;;55.07;21.53;;;;;;;9.67;62.47;92345.72;5090101;28;20032;-68
2021/03/15 06:46:45;;;;;;;41.05;21.05;;;;;;;9.79;61.88;92340.28;5092501;28;20389;-68
2021/03/15 06:49:11;;;;;;;44.08;21.92;;;;;;;9.88;61.53;92339.34;5094197;28;20036;-68
2021/03/15 06:51:36;;;;;;;48.90;21.83;;;;;;;10.00;61.13;92349.88;5094140;28;20030;-68
2021/03/15 06:54:02;;;;;;;49.08;20.35;;;;;;;10.05;60.93;92341.63;5094419;28;20050;-67
2021/03/15 06:56:27;;;;;;;47.47;21.77;;;;;;;10.08;61.20;92340.19;5094128;28;20020;-68
2021/03/15 06:58:55;;;;;;;47.03;22.60;;;;;;;10.11;60.88;92342.91;5094101;28;20031;-70
2021/03/15 07:01:25;;;;;;;37.88;20.00;;;;;;;10.08;61.03;92340.19;5092847;28;20055;-68
2021/03/15 07:04:07;;;;;;;42.83;20.38;;;;;;;10.08;61.05;92348.94;5094143;28;20028;-68
2021/03/15 07:06:38;;;;;;;47.83;21.65;;;;;;;10.12;60.89;92341.78;5094078;28;20024;-68
2021/03/15 07:09:12;;;;;;;45.90;20.95;;;;;;;10.14;61.21;92339.56;5092700;28;20028;-68
2021/03/15 07:11:37;;;;;;;38.55;19.92;;;;;;;10.20;61.47;92332.06;5092708;28;20020;-68
2021/03/15 07:14:03;;;;;;;34.75;19.83;;;;;;;10.23;60.86;92326.81;5092494;28;20031;-68
2021/03/15 07:16:31;;;;;;;34.10;18.90;;;;;;;10.31;60.70;92330.44;5091278;28;20030;-68
2021/03/15 07:19:03;;;;;;;31.13;18.20;;;;;;;10.45;60.38;92327.31;5092403;28;20032;-68
2021/03/15 07:21:30;;;;;;;39.47;21.38;;;;;;;10.52;59.91;92316.81;5093917;28;20043;-69
2021/03/15 07:23:58;;;;;;;48.72;20.85;;;;;;;10.56;59.64;92317.66;5093698;28;20032;-68
2021/03/15 07:26:31;;;;;;;36.97;19.77;;;;;;;10.52;59.72;92321.34;5092411;28;20111;-70
2021/03/15 07:28:58;;;;;;;36.83;19.63;;;;;;;10.59;59.55;92308.19;5093722;28;20049;-68
2021/03/15 07:31:26;;;;;;;30.50;18.45;;;;;;;10.62;59.96;92294.94;5092449;28;20118;-69
2021/03/15 07:33:54;;;;;;;29.23;17.80;;;;;;;10.69;59.55;92301.53;5093742;28;20024;-69
2021/03/15 07:36:30;;;;;;;29.83;18.63;;;;;;;10.68;59.33;92292.75;5091840;28;20085;-69
2021/03/15 07:38:57;;;;;;;37.10;18.55;;;;;;;10.72;59.68;92300.81;5088983;28;20494;-70
2021/03/15 07:41:24;;;;;;;27.58;17.02;;;;;;;10.82;59.18;92302.91;5092001;28;20035;-69
2021/03/15 07:43:51;;;;;;;30.02;17.15;;;;;;;10.94;58.36;92305.41;5092147;28;20024;-68
2021/03/15 07:46:27;;;;;;;30.13;15.65;;;;;;;10.97;57.83;92299.41;5093282;28;20550;-74
2021/03/15 07:48:54;;;;;;;25.67;16.45;;;;;;;11.04;58.13;92293.41;5092711;28;20616;-69
2021/03/15 07:51:34;;;;;;;28.50;16.25;;;;;;;11.14;58.07;92297.41;5091352;28;20020;-70
2021/03/15 07:54:04;;;;;;;35.08;15.57;;;;;;;11.21;57.66;92287.63;5090869;28;20059;-74
2021/03/15 07:56:30;;;;;;;24.58;17.02;;;;;;;11.34;57.25;92284.78;5091637;28;20205;-74
2021/03/15 07:58:55;;;;;;;27.88;17.75;;;;;;;11.39;56.96;92292.50;5090779;28;20038;-75
2021/03/15 08:01:21;;;;;;;30.20;17.48;;;;;;;11.48;56.66;92278.91;5091972;28;20024;-76
2021/03/15 08:03:47;;;;;;;30.90;17.55;;;;;;;11.39;57.23;92277.25;5092201;28;20387;-74
2021/03/15 08:06:12;;;;;;;35.35;18.25;;;;;;;11.39;56.83;92261.25;5090430;28;20129;-75
2021/03/15 08:08:39;;;;;;;30.13;17.48;;;;;;;11.36;57.20;92266.53;5090426;28;20027;-76
2021/03/15 08:11:06;;;;;;;29.20;17.35;;;;;;;11.35;57.58;92263.09;5091364;28;20054;-75
2021/03/15 08:13:49;;;;;;;35.30;18.48;;;;;;;11.40;57.77;92268.13;5091303;28;20067;-75
2021/03/15 08:16:19;;;;;;;33.13;17.83;;;;;;;11.44;56.73;92263.63;5090147;28;20028;-76
2021/03/15 08:18:47;;;;;;;37.30;17.65;;;;;;;11.51;57.19;92265.63;5090170;28;20161;-76
2021/03/15 08:21:31;;;;;;;31.08;17.20;;;;;;;11.58;56.80;92262.28;5090100;28;20028;-74
2021/03/15 08:23:58;;;;;;;32.97;18.58;;;;;;;11.65;56.18;92252.50;5091343;28;20036;-74
2021/03/15 08:26:23;;;;;;;34.75;17.27;;;;;;;11.74;56.29;92252.25;5090305;28;20023;-74
2021/03/15 08:28:54;;;;;;;33.25;18.17;;;;;;;11.77;56.03;92256.13;5089874;28;20419;-74
2021/03/15 08:31:22;;;;;;;30.85;19.15;;;;;;;11.85;55.58;92255.84;5090316;28;20050;-75
2021/03/15 08:33:49;;;;;;;32.60;16.85;;;;;;;11.93;55.26;92248.00;5090323;28;20028;-75
2021/03/15 08:36:15;;;;;;;26.83;16.85;;;;;;;11.95;55.58;92243.81;5090829;28;20073;-75
2021/03/15 08:38:41;;;;;;;30.48;16.50;;;;;;;11.98;55.38;92245.00;5091327;28;20407;-75
2021/03/15 08:41:08;;;;;;;29.33;16.33;;;;;;;12.05;55.10;92239.75;5091358;28;20070;-76
2021/03/15 08:43:37;;;;;;;24.33;15.52;;;;;;;12.13;54.37;92227.25;5091535;28;20099;-73
2021/03/15 08:46:15;;;;;;;37.75;18.23;;;;;;;12.21;54.19;92237.69;5090309;28;20024;-73
2021/03/15 08:48:40;;;;;;;36.95;20.30;;;;;;;12.27;54.02;92226.66;5091060;28;20526;-73
2021/03/15 08:51:32;;;;;;;28.58;17.27;;;;;;;12.36;54.12;92229.84;5091199;28;20059;-73
2021/03/15 08:53:58;;;;;;;42.63;22.58;;;;;;;12.43;53.76;92225.34;5090812;28;20105;-76
2021/03/15 08:56:23;;;;;;;48.28;26.17;;;;;;;12.58;54.25;92217.50;5090959;28;20032;-75
2021/03/15 08:58:56;;;;;;;41.10;25.38;;;;;;;12.65;53.14;92221.00;5091010;28;20032;-75
2021/03/15 09:01:26;;;;;;;35.30;18.67;;;;;;;12.70;52.93;92211.13;5090790;28;20150;-75
2021/03/15 09:03:59;;;;;;;29.52;19.02;;;;;;;12.80;52.55;92205.13;5088697;28;20115;-75
2021/03/15 09:06:31;;;;;;;34.58;17.13;;;;;;;12.92;51.82;92199.50;5091158;28;20027;-74
2021/03/15 09:09:01;;;;;;;24.55;15.40;;;;;;;12.95;52.00;92196.09;5090620;28;20024;-75
2021/03/15 09:11:51;;;;;;;30.75;15.55;;;;;;;13.09;51.75;92198.16;5089264;28;20028;-75
2021/03/15 09:14:16;;;;;;;27.55;16.50;;;;;;;13.18;50.95;92185.22;5089355;28;20110;-77
2021/03/15 09:16:48;;;;;;;30.00;17.63;;;;;;;13.30;50.79;92181.53;5089207;28;20092;-76
2021/03/15 09:19:39;;;;;;;55.57;30.67;;;;;;;13.37;50.97;92168.22;5091130;28;20032;-75
2021/03/15 09:22:25;;;;;;;38.00;20.98;;;;;;;13.46;49.89;92162.53;5087270;28;20070;-75
2021/03/15 09:25:01;;;;;;;28.92;17.33;;;;;;;13.46;50.17;92164.47;5089837;28;20078;-77
2021/03/15 09:27:39;;;;;;;30.50;17.88;;;;;;;13.46;50.12;92159.09;5088854;28;20444;-76
2021/03/15 09:30:18;;;;;;;29.10;15.63;;;;;;;13.50;49.80;92151.88;5089150;28;20110;-76
2021/03/15 09:32:46;;;;;;;32.35;17.45;;;;;;;13.50;49.85;92157.97;5091058;28;20028;-76
2021/03/15 09:35:36;;;;;;;30.17;15.63;;;;;;;13.54;49.49;92149.97;5082418;28;20418;-76
2021/03/15 09:38:06;;;;;;;28.52;17.60;;;;;;;13.61;48.85;92140.06;5087960;28;20036;-76
2021/03/15 09:40:31;;;;;;;26.27;15.93;;;;;;;13.66;49.04;92149.66;5088522;28;20532;-76
2021/03/15 09:42:57;;;;;;;26.15;15.13;;;;;;;13.70;48.77;92147.78;5088040;28;20031;-76
2021/03/15 09:45:40;;;;;;;24.48;14.15;;;;;;;13.75;48.76;92139.38;5089140;28;20510;-76
2021/03/15 09:48:26;;;;;;;32.60;16.15;;;;;;;13.80;48.53;92140.97;5089707;28;20503;-76
2021/03/15 09:50:56;;;;;;;25.63;13.77;;;;;;;13.83;48.18;92130.25;5087682;28;20482;-76
2021/03/15 09:53:22;;;;;;;25.35;14.38;;;;;;;13.87;47.58;92127.59;5088331;28;20071;-76
2021/03/15 09:56:00;;;;;;;22.05;13.20;;;;;;;13.80;48.00;92128.34;5088188;28;20473;-76
2021/03/15 09:58:25;;;;;;;20.58;14.02;;;;;;;13.72;48.50;92126.75;5089594;28;20103;-76
2021/03/15 10:00:54;;;;;;;26.55;14.23;;;;;;;13.70;48.59;92118.34;5089435;28;20105;-76
2021/03/15 10:03:21;;;;;;;30.65;17.42;;;;;;;13.65;48.73;92114.09;5088344;28;20115;-76
2021/03/15 10:05:59;;;;;;;27.83;14.80;;;;;;;13.53;50.08;92119.00;5089571;28;20020;-75
2021/03/15 10:08:26;;;;;;;25.05;14.40;;;;;;;13.45;50.84;92120.84;5088755;28;20020;-75
2021/03/15 10:10:52;;;;;;;23.83;13.73;;;;;;;13.38;50.80;92116.22;5088428;28;20498;-76
2021/03/15 10:13:18;;;;;;;26.10;17.27;;;;;;;13.31;51.12;92118.88;5088540;28;20020;-76
2021/03/15 10:15:46;;;;;;;27.80;18.50;;;;;;;13.20;52.30;92104.59;5089608;28;20024;-76
2021/03/15 10:18:19;;;;;;;25.58;16.75;;;;;;;13.11;54.11;92107.63;5086913;28;20110;-76
2021/03/15 10:20:46;;;;;;;45.17;19.80;;;;;;;13.08;53.68;92110.25;5087328;28;20441;-76
2021/03/15 10:23:14;;;;;;;20.83;11.80;;;;;;;13.06;52.80;92097.25;5088092;28;20181;-75
2021/03/15 10:25:52;;;;;;;20.02;12.40;;;;;;;12.97;52.15;92092.22;5087868;28;20032;-76
2021/03/15 10:28:17;;;;;;;24.90;13.52;;;;;;;12.92;52.99;92089.88;5087786;28;20024;-76
2021/03/15 10:30:43;;;;;;;24.98;14.50;;;;;;;12.99;53.39;92089.94;5088011;28;20376;-75
2021/03/15 10:33:09;;;;;;;27.63;17.23;;;;;;;13.02;53.48;92072.38;5088252;28;20020;-76
2021/03/15 10:35:35;;;;;;;30.05;16.40;;;;;;;13.07;54.95;92061.34;5089504;28;20024;-76
2021/03/15 10:38:02;;;;;;;27.75;15.55;;;;;;;13.18;54.26;92062.16;5089047;28;20036;-76
2021/03/15 10:40:28;;;;;;;28.88;15.57;;;;;;;13.23;54.63;92055.72;5088000;28;20043;-76
2021/03/15 10:42:55;;;;;;;29.00;15.27;;;;;;;13.28;53.96;92049.25;5087445;28;20020;-76
2021/03/15 10:45:23;;;;;;;27.30;14.55;;;;;;;13.31;52.05;92053.88;5087902;28;20038;-76
2021/03/15 10:47:49;;;;;;;22.85;12.70;;;;;;;13.28;50.71;92050.00;5087866;28;20031;-76
2021/03/15 10:50:35;;;;;;;20.50;13.60;;;;;;;13.05;50.65;92045.66;5088390;28;20036;-76
2021/03/15 10:53:18;;;;;;;19.45;12.30;;;;;;;12.78;51.13;92047.00;5087486;28;20130;-76
2021/03/15 10:55:45;;;;;;;26.75;12.65;;;;;;;12.78;52.12;92044.31;5088627;28;20100;-76
2021/03/15 10:58:12;;;;;;;16.63;10.80;;;;;;;12.78;52.49;92030.94;5087635;28;20051;-76
2021/03/15 11:00:43;;;;;;;17.30;10.63;;;;;;;12.81;53.65;92017.63;5089324;28;20063;-76
2021/03/15 11:03:20;;;;;;;16.98;9.52;;;;;;;12.82;52.83;92026.41;5088407;28;20406;-76
2021/03/15 11:05:45;;;;;;;16.58;9.55;;;;;;;12.87;52.25;92022.63;5088261;28;20028;-76
2021/03/15 11:08:20;;;;;;;22.98;10.45;;;;;;;12.94;52.13;92028.78;5089086;28;20051;-77
2021/03/15 11:10:46;;;;;;;23.70;13.10;;;;;;;12.96;52.27;92021.13;5087816;28;20491;-75
2021/03/15 11:13:21;;;;;;;45.80;20.85;;;;;;;13.02;52.24;92013.53;5086963;28;20074;-76
2021/03/15 11:15:47;;;;;;;32.35;15.00;;;;;;;13.04;51.33;92017.38;5087258;28;20060;-75
2021/03/15 11:18:24;;;;;;;16.92;10.75;;;;;;;12.98;49.99;92016.19;5086950;28;20113;-75
2021/03/15 11:20:53;;;;;;;24.05;12.02;;;;;;;12.79;50.90;92017.22;5088227;28;20521;-74
2021/03/15 11:23:40;;;;;;;28.33;14.50;;;;;;;12.47;50.11;92016.97;5088373;28;20122;-76
2021/03/15 11:26:14;;;;;;;20.90;12.88;;;;;;;12.15;51.66;92008.66;5087065;28;20020;-74
2021/03/15 11:29:00;;;;;;;15.43;9.75;;;;;;;11.84;52.54;92010.63;5086839;28;20032;-75
2021/03/15 11:31:30;;;;;;;9.60;6.05;;;;;;;11.12;54.88;92012.44;5087462;28;20491;-74
2021/03/15 11:34:00;;;;;;;8.63;4.80;;;;;;;10.64;57.45;91999.63;5091953;28;20020;-75